Accueil
METAR-TAF:

METAR-TAF

Aéroports :

Aéroport international de Berne

Berne, Suisse

latitude: 46-55N, longitude: 007-30E, altitude: 505 m

Observation

Le bulletin a été fait il y a 21 minutes, à 08:20 UTC
Vent 3 kt de direction variable
Température 10°C
Humidité 71%
Pression 1014 hPa
Visibilité 10 km ou plus
pas de nuages en-dessous de 1500 mètres et pas de cumulonimbus.

METAR: LSZB 150820Z VRB03KT CAVOK 10/05 Q1014 NOSIG

Heure: 10:41 (08:41 UTC)

Prévision

Le bulletin a été fait il y a 16 minutes, à 08:25 UTC
Prévision valable du 15 à 09 UTC au 15 à 18 UTC
Vent 3 kt de direction variable
Visibilité 10 km ou plus
pas de nuages en-dessous de 1500 mètres et pas de cumulonimbus.
Probabilité 30% :
Temporairement
du 15 à 11 UTC au 15 à 14 UTC
Vent 10 kt de nord-ouest

TAF: LSZB 150825Z 1509/1518 VRB03KT CAVOK PROB30 TEMPO 1511/1514 31010KT

Observations et prévisions météorologiques de plus de 4000 aéroports (messages METAR et TAF).

Les stations disponibles sont représentées par des disques jaunes et rouges sur la carte.

Passer la souris dessus pour voir le nom de la station.

Cliquer dessus pour voir les observations et prévisions météorologiques.

Pour changer de carte: cliquez sur les boutons verts avec une croix noire pour zoomer, sur le bouton vert avec un tiret pour effectuer un zoom arrière, ou sur les flèches vertes pour les cartes adjacentes.


METAR-TAF: